Time;durP1;ratioP1;P1;durP2;ratioP2;P2;SDS_P1;SDS_P2;PMS_P1;PMS_P2;Temp;Humidity;BMP_temperature;BMP_pressure;BME280_temperature;BME280_humidity;BME280_pressure;Samples;Min_cycle;Max_cycle;Signal;HPM_P1;HPM_P2
2023/03/11 00:00:43;;;;;;;;;2.00;2.00;;;;;9.20;49.97;100462.50;5116004;27;46118;-78
2023/03/11 00:03:11;;;;;;;;;1.75;1.75;;;;;9.20;50.05;100476.75;5116226;27;45332;-76
2023/03/11 00:05:39;;;;;;;;;2.00;2.00;;;;;9.24;49.73;100494.44;5116064;27;45261;-77
2023/03/11 00:08:08;;;;;;;;;1.25;1.25;;;;;9.17;50.40;100490.28;5116269;27;45604;-76
2023/03/11 00:10:36;;;;;;;;;2.00;2.00;;;;;9.10;50.29;100483.47;5115851;27;46080;-76
2023/03/11 00:13:04;;;;;;;;;1.00;1.00;;;;;9.23;51.20;100513.22;5115880;27;45395;-76
2023/03/11 00:15:30;;;;;;;;;1.00;1.00;;;;;9.23;50.39;100523.91;5115908;27;45528;-76
2023/03/11 00:17:56;;;;;;;;;2.75;2.00;;;;;9.15;50.36;100507.34;5116132;27;45331;-75
2023/03/11 00:20:30;;;;;;;;;1.75;1.50;;;;;9.23;50.58;100522.09;5115549;27;46218;-77
2023/03/11 00:22:56;;;;;;;;;4.00;2.00;;;;;9.25;50.59;100516.69;5115916;27;45330;-76
2023/03/11 00:25:24;;;;;;;;;2.00;2.00;;;;;9.25;50.56;100500.66;5115974;27;45266;-76
2023/03/11 00:27:49;;;;;;;;;2.50;2.00;;;;;9.20;50.99;100479.44;5106741;27;45404;-76
2023/03/11 05:33:48;;;;;;;;;10.00;10.00;;;;;8.31;58.47;100537.59;5076849;28;45777;-52
2023/03/11 05:36:13;;;;;;;;;9.75;6.75;;;;;8.29;58.44;100550.09;5078730;28;45300;-56
2023/03/11 05:38:38;;;;;;;;;4.25;4.25;;;;;8.26;58.23;100544.84;5078691;28;51847;-55
2023/03/11 05:41:05;;;;;;;;;10.00;7.50;;;;;8.26;58.66;100542.19;5078094;28;45431;-56
2023/03/11 05:43:30;;;;;;;;;15.75;11.75;;;;;8.24;58.51;100550.28;5079220;28;45305;-54
2023/03/11 05:45:55;;;;;;;;;11.75;10.50;;;;;8.24;59.12;100552.97;5081834;28;50660;-54
2023/03/11 05:48:21;;;;;;;;;7.00;7.00;;;;;8.20;59.37;100551.31;5082127;28;48526;-54
2023/03/11 05:50:46;;;;;;;;;7.50;7.00;;;;;8.28;58.96;100561.69;5081959;27;46072;-55
2023/03/11 05:53:11;;;;;;;;;12.50;9.25;;;;;8.29;58.98;100563.44;5081596;28;57190;-54
2023/03/11 05:55:36;;;;;;;;;7.75;6.75;;;;;8.29;58.84;100561.66;5081574;27;45265;-53
2023/03/11 05:58:02;;;;;;;;;12.00;10.50;;;;;8.28;58.93;100556.34;5081429;28;62784;-54
2023/03/11 06:00:28;;;;;;;;;8.00;8.00;;;;;8.31;58.96;100557.16;5081974;28;45201;-53
2023/03/11 06:02:54;;;;;;;;;11.25;8.75;;;;;8.28;59.28;100554.56;5082136;28;45296;-54
2023/03/11 06:05:19;;;;;;;;;11.75;11.75;;;;;8.28;58.87;100549.22;5081755;28;45443;-55
2023/03/11 06:07:44;;;;;;;;;13.00;10.75;;;;;8.28;59.10;100551.03;5081867;28;45217;-53
2023/03/11 06:10:10;;;;;;;;;9.50;9.50;;;;;8.24;58.73;100568.97;5081777;28;45233;-55
2023/03/11 06:12:37;;;;;;;;;10.50;9.00;;;;;8.17;58.69;100569.25;5081759;28;45315;-56
2023/03/11 06:15:03;;;;;;;;;8.00;8.00;;;;;8.20;59.32;100563.81;5081343;28;45323;-55
2023/03/11 06:17:28;;;;;;;;;7.25;6.50;;;;;8.14;58.96;100558.72;5081731;28;45382;-55
2023/03/11 06:19:54;;;;;;;;;7.00;7.00;;;;;8.16;59.11;100559.53;5080177;28;45308;-53
2023/03/11 06:22:19;;;;;;;;;8.00;8.00;;;;;8.19;58.77;100559.38;5081481;28;50394;-54
2023/03/11 06:24:44;;;;;;;;;7.75;7.75;;;;;8.24;58.43;100565.44;5080449;28;45300;-55
2023/03/11 06:27:10;;;;;;;;;8.50;6.50;;;;;8.24;58.44;100574.31;5080990;28;47187;-55
2023/03/11 06:29:35;;;;;;;;;9.25;9.25;;;;;8.26;58.01;100575.09;5081617;28;45250;-54
2023/03/11 06:32:00;;;;;;;;;7.50;7.50;;;;;8.24;58.44;100565.44;5081292;28;45368;-52
2023/03/11 06:34:26;;;;;;;;;12.00;8.00;;;;;8.27;58.47;100579.53;5080880;28;54760;-54
2023/03/11 06:36:51;;;;;;;;;10.00;8.25;;;;;8.27;57.94;100581.31;5081261;28;46465;-54
2023/03/11 06:39:16;;;;;;;;;8.00;6.00;;;;;8.27;58.54;100581.31;5081337;28;45279;-54
2023/03/11 06:41:42;;;;;;;;;8.00;8.00;;;;;8.26;57.80;100577.78;5081220;28;45402;-54
2023/03/11 06:44:09;;;;;;;;;11.25;7.25;;;;;8.27;58.15;100578.66;5080862;28;53695;-54
2023/03/11 06:46:34;;;;;;;;;10.25;8.50;;;;;8.27;58.70;100584.88;5080210;28;46158;-55
2023/03/11 06:49:00;;;;;;;;;9.00;6.75;;;;;8.21;58.84;100557.53;5081059;28;45215;-56
2023/03/11 06:51:25;;;;;;;;;8.75;8.75;;;;;8.29;58.77;100568.78;5081240;27;45415;-52
2023/03/11 06:53:52;;;;;;;;;10.75;7.50;;;;;8.29;58.29;100561.66;5081305;28;45196;-52
2023/03/11 06:56:19;;;;;;;;;7.00;7.00;;;;;8.33;58.75;100568.66;5080466;27;46093;-53
2023/03/11 06:58:45;;;;;;;;;11.50;9.75;;;;;8.34;58.72;100585.53;5081192;28;45348;-54
2023/03/11 07:01:13;;;;;;;;;9.00;7.75;;;;;8.36;58.49;100575.66;5081142;28;45268;-53
2023/03/11 07:03:39;;;;;;;;;9.25;7.00;;;;;8.36;58.49;100581.00;5079870;28;45515;-56
2023/03/11 07:06:05;;;;;;;;;8.00;6.75;;;;;8.40;58.08;100587.09;5080628;28;45273;-54
2023/03/11 07:08:31;;;;;;;;;12.00;9.25;;;;;8.42;58.22;100603.94;5080906;28;45340;-54
2023/03/11 07:11:03;;;;;;;;;3.75;3.75;;;;;8.43;58.55;100613.66;5080844;28;45677;-55
2023/03/11 07:13:28;;;;;;;;;10.50;9.25;;;;;8.43;58.19;100606.53;5080626;28;45286;-56
2023/03/11 07:16:06;;;;;;;;;8.50;4.75;;;;;8.44;58.04;100607.41;5080372;28;45253;-53
2023/03/11 07:18:32;;;;;;;;;9.75;7.50;;;;;8.46;57.83;100618.91;5080328;28;45296;-54
2023/03/11 07:20:58;;;;;;;;;8.75;8.75;;;;;8.47;58.06;100623.31;5080945;28;45358;-54
2023/03/11 07:23:23;;;;;;;;;7.00;7.00;;;;;8.50;57.64;100618.75;5080332;28;45292;-59
2023/03/11 07:25:50;;;;;;;;;11.50;8.00;;;;;8.52;58.17;100629.34;5080146;28;46017;-59
2023/03/11 07:28:16;;;;;;;;;12.00;9.25;;;;;8.53;57.77;100628.41;5079860;28;45336;-58
2023/03/11 07:30:43;;;;;;;;;7.00;7.00;;;;;8.51;57.58;100631.16;5080907;28;45421;-59
2023/03/11 07:33:08;;;;;;;;;11.00;7.75;;;;;8.53;57.75;100636.44;5080199;28;45469;-59
2023/03/11 07:35:34;;;;;;;;;6.25;6.25;;;;;8.49;58.04;100635.72;5080452;28;45263;-59
2023/03/11 07:37:59;;;;;;;;;9.50;8.00;;;;;8.52;57.54;100643.56;5079821;28;53964;-59
2023/03/11 07:40:25;;;;;;;;;8.25;6.75;;;;;8.53;57.29;100649.78;5080576;28;45343;-59
2023/03/11 07:42:50;;;;;;;;;12.00;11.00;;;;;8.50;56.97;100650.81;5079886;28;45245;-59
2023/03/11 07:45:15;;;;;;;;;11.00;8.75;;;;;8.48;57.41;100657.13;5080054;28;46137;-58
2023/03/11 07:47:41;;;;;;;;;7.00;7.00;;;;;8.49;57.12;100665.09;5079520;28;59119;-60
2023/03/11 07:50:06;;;;;;;;;9.00;9.00;;;;;8.50;57.58;100669.50;5079965;28;51632;-59
2023/03/11 07:52:32;;;;;;;;;11.50;9.25;;;;;8.51;57.22;100651.66;5079998;28;45389;-58
2023/03/11 07:54:58;;;;;;;;;12.00;8.50;;;;;8.55;57.55;100645.28;5079908;27;47241;-59
2023/03/11 07:57:23;;;;;;;;;8.00;6.75;;;;;8.58;57.47;100646.03;5079733;27;45317;-60
2023/03/11 07:59:49;;;;;;;;;4.75;4.00;;;;;8.63;56.81;100640.50;5080407;28;45280;-59
2023/03/11 08:02:14;;;;;;;;;8.50;8.00;;;;;8.61;57.37;100640.53;5078839;28;45588;-59
2023/03/11 08:04:40;;;;;;;;;10.75;8.50;;;;;8.62;56.94;100650.31;5079703;28;46423;-59
2023/03/11 08:07:06;;;;;;;;;7.25;7.25;;;;;8.65;57.25;100662.69;5079016;28;50325;-60
2023/03/11 08:09:33;;;;;;;;;10.00;8.00;;;;;8.63;56.65;100667.22;5080316;28;45342;-60
2023/03/11 08:11:58;;;;;;;;;8.00;8.00;;;;;8.65;56.75;100663.56;5078801;28;45508;-60
2023/03/11 08:14:24;;;;;;;;;10.50;7.50;;;;;8.72;56.86;100664.19;5079835;28;46134;-60
2023/03/11 08:16:49;;;;;;;;;7.75;7.00;;;;;8.77;58.79;100664.84;5079922;28;45268;-60
2023/03/11 08:19:14;;;;;;;;;12.25;10.00;;;;;8.85;57.25;100673.44;5079502;28;49428;-60
2023/03/11 08:21:40;;;;;;;;;4.00;4.00;;;;;8.71;56.68;100652.63;5079071;28;55646;-60
2023/03/11 08:24:05;;;;;;;;;7.25;7.25;;;;;8.84;57.15;100674.41;5077526;28;45373;-59
2023/03/11 08:26:31;;;;;;;;;6.50;6.50;;;;;8.82;57.24;100670.03;5071931;28;45423;-59
2023/03/11 08:28:57;;;;;;;;;8.00;6.75;;;;;8.88;57.27;100664.44;5076560;28;45492;-59
2023/03/11 08:31:28;;;;;;;;;7.50;7.50;;;;;8.96;57.45;100667.66;5078080;27;45445;-60
2023/03/11 08:34:00;;;;;;;;;8.75;7.25;;;;;8.93;56.11;100676.69;5076972;27;46707;-60
2023/03/11 08:36:26;;;;;;;;;9.50;7.50;;;;;8.90;56.25;100670.59;5094040;27;45590;-60
2023/03/11 08:38:52;;;;;;;;;3.00;3.00;;;;;8.84;56.02;100658.38;5100065;27;45295;-60
2023/03/11 08:41:17;;;;;;;;;10.25;9.00;;;;;8.82;56.27;100651.31;5083333;27;45409;-61
2023/03/11 08:43:43;;;;;;;;;9.25;9.25;;;;;8.81;56.20;100650.47;5079019;28;46302;-61
2023/03/11 08:46:16;;;;;;;;;9.25;7.75;;;;;8.85;56.28;100651.19;5079096;28;45170;-58
2023/03/11 08:48:41;;;;;;;;;9.50;7.75;;;;;8.82;56.40;100654.00;5089260;27;45285;-59
2023/03/11 08:51:11;;;;;;;;;9.00;7.25;;;;;8.85;55.65;100673.44;5099334;27;45271;-59
2023/03/11 08:53:36;;;;;;;;;8.50;8.50;;;;;8.81;56.26;100673.63;5099558;27;46421;-59
2023/03/11 08:56:02;;;;;;;;;6.50;6.50;;;;;8.90;56.05;100682.16;5098731;27;45267;-60
2023/03/11 08:58:28;;;;;;;;;10.00;7.75;;;;;8.99;55.87;100678.25;5063884;28;45570;-60
2023/03/11 09:00:54;;;;;;;;;7.50;7.50;;;;;8.85;55.43;100653.84;5079029;28;46021;-58
2023/03/11 09:03:19;;;;;;;;;13.25;9.00;;;;;9.11;54.40;100699.13;5078602;28;46207;-60
2023/03/11 09:05:44;;;;;;;;;4.00;4.00;;;;;9.00;52.76;100690.69;5078178;28;60111;-58
2023/03/11 09:08:10;;;;;;;;;7.25;6.50;;;;;8.94;52.83;100680.22;5078978;28;47285;-61
2023/03/11 09:10:35;;;;;;;;;4.00;4.00;;;;;8.99;52.41;100687.16;5078702;28;45328;-62
2023/03/11 09:13:00;;;;;;;;;3.00;3.00;;;;;9.00;52.87;100699.59;5079277;28;45463;-60
2023/03/11 09:15:26;;;;;;;;;9.00;7.00;;;;;8.97;52.60;100691.69;5078733;28;45296;-59
2023/03/11 09:17:51;;;;;;;;;7.00;6.00;;;;;8.87;53.26;100682.28;5078676;28;45249;-60
2023/03/11 09:20:17;;;;;;;;;14.75;9.75;;;;;8.79;53.81;100678.16;5081513;28;45931;-60
2023/03/11 09:22:42;;;;;;;;;8.00;8.00;;;;;8.80;54.20;100671.91;5082615;28;46334;-59
2023/03/11 09:25:11;;;;;;;;;11.75;7.00;;;;;8.92;54.23;100687.47;5064149;28;45231;-60
2023/03/11 09:27:37;;;;;;;;;6.25;6.25;;;;;8.92;53.50;100679.44;5082298;28;45299;-59
2023/03/11 09:30:03;;;;;;;;;9.00;9.00;;;;;8.88;53.84;100667.09;5081510;28;45577;-62
2023/03/11 09:32:28;;;;;;;;;7.25;7.25;;;;;8.94;53.42;100665.06;5081574;28;45419;-60
2023/03/11 09:34:53;;;;;;;;;7.00;7.00;;;;;8.96;53.15;100675.69;5082066;28;45315;-61
2023/03/11 09:37:19;;;;;;;;;8.25;6.75;;;;;8.94;52.35;100682.91;5082434;28;45210;-60
2023/03/11 09:39:44;;;;;;;;;6.25;6.25;;;;;8.86;52.63;100679.66;5082185;28;46034;-60
2023/03/11 09:42:21;;;;;;;;;10.00;8.50;;;;;8.91;53.57;100681.25;5082178;28;46213;-60
2023/03/11 09:44:46;;;;;;;;;4.50;4.50;;;;;8.99;53.29;100684.47;5082094;28;45360;-60
2023/03/11 09:47:29;;;;;;;;;6.50;6.00;;;;;9.11;53.58;100686.63;5063600;28;45332;-61
2023/03/11 09:50:19;;;;;;;;;9.00;6.00;;;;;9.25;52.65;100682.53;5066555;27;46591;-60
2023/03/11 09:52:57;;;;;;;;;4.00;4.00;;;;;9.37;52.44;100673.97;5076565;28;46223;-60
2023/03/11 09:55:36;;;;;;;;;6.00;4.25;;;;;9.47;52.20;100673.53;5062279;28;45355;-60
2023/03/11 09:58:08;;;;;;;;;5.50;5.50;;;;;9.59;51.69;100669.47;5080269;28;45422;-59
2023/03/11 10:00:34;;;;;;;;;4.25;3.25;;;;;9.67;50.85;100678.03;5080670;27;45454;-58
2023/03/11 10:03:01;;;;;;;;;3.00;3.00;;;;;9.75;51.16;100683.94;5080137;27;45437;-58
2023/03/11 10:05:29;;;;;;;;;5.75;5.75;;;;;9.87;51.71;100686.06;5081249;27;45398;-58
2023/03/11 10:08:02;;;;;;;;;5.25;5.25;;;;;9.98;50.93;100687.41;5081013;27;45639;-57
2023/03/11 10:10:38;;;;;;;;;4.50;4.50;;;;;9.99;49.78;100691.81;5080529;28;45229;-59
2023/03/11 10:13:25;;;;;;;;;3.25;3.00;;;;;9.99;49.38;100684.66;5081753;27;45350;-59
2023/03/11 10:16:03;;;;;;;;;3.75;3.50;;;;;9.92;49.68;100699.28;5080203;27;45286;-59
2023/03/11 10:19:06;;;;;;;;;4.75;3.00;;;;;9.90;49.30;100705.63;5081309;27;45346;-58
2023/03/11 10:21:45;;;;;;;;;2.50;2.50;;;;;9.95;49.65;100700.94;5081074;28;45379;-57
2023/03/11 10:24:29;;;;;;;;;2.75;2.75;;;;;10.15;50.08;100703.59;5081068;27;45327;-58
2023/03/11 10:27:00;;;;;;;;;4.25;2.00;;;;;10.32;49.50;100695.69;5080663;28;45335;-57
2023/03/11 10:29:29;;;;;;;;;2.00;2.00;;;;;10.45;48.88;100696.91;5081126;28;45304;-56
2023/03/11 10:32:14;;;;;;;;;2.75;2.75;;;;;10.56;48.72;100693.69;5081030;28;45366;-57
2023/03/11 10:34:46;;;;;;;;;5.75;2.25;;;;;10.61;48.38;100687.19;5080946;28;45395;-56
2023/03/11 10:37:28;;;;;;;;;3.00;3.00;;;;;10.75;48.39;100701.75;5081171;28;45324;-58
2023/03/11 10:39:54;;;;;;;;;2.50;2.00;;;;;10.85;48.79;100697.69;5081260;28;45291;-58
2023/03/11 10:42:23;;;;;;;;;3.00;3.00;;;;;10.96;48.15;100706.97;5081027;28;45580;-60
2023/03/11 10:44:49;;;;;;;;;1.50;1.50;;;;;11.06;48.10;100710.06;5081218;28;45296;-58
2023/03/11 10:47:24;;;;;;;;;3.50;3.50;;;;;11.18;47.81;100700.56;5081192;28;45360;-58
2023/03/11 10:49:51;;;;;;;;;5.00;3.00;;;;;11.28;47.14;100708.09;5080684;28;45317;-57
2023/03/11 10:52:17;;;;;;;;;3.25;3.25;;;;;11.35;46.72;100706.84;5081202;28;45459;-57
2023/03/11 10:54:46;;;;;;;;;4.00;4.00;;;;;11.43;46.68;100705.56;5080448;28;45268;-59
2023/03/11 10:57:46;;;;;;;;;3.25;3.25;;;;;11.37;45.61;100702.25;5080925;28;45256;-59
2023/03/11 11:00:29;;;;;;;;;2.00;2.00;;;;;11.36;45.99;100702.34;5027577;28;45299;-61
2023/03/11 11:02:56;;;;;;;;;2.75;2.75;;;;;11.41;46.02;100691.34;5067474;28;45281;-59
2023/03/11 11:05:31;;;;;;;;;7.00;3.00;;;;;11.47;45.84;100691.94;5080733;28;46222;-57
2023/03/11 11:08:25;;;;;;;;;2.00;2.00;;;;;11.52;46.21;100668.41;5081125;28;45328;-58
2023/03/11 11:10:54;;;;;;;;;4.25;4.25;;;;;11.86;45.98;100696.25;5067443;28;45393;-57
2023/03/11 11:13:21;;;;;;;;;4.50;4.50;;;;;11.98;45.97;100680.38;5081154;28;45468;-55
2023/03/11 11:15:52;;;;;;;;;3.75;3.75;;;;;12.03;45.68;100666.66;5080781;28;46662;-56
2023/03/11 11:18:22;;;;;;;;;5.75;5.00;;;;;12.21;45.18;100686.31;5080830;28;45348;-57
2023/03/11 11:21:05;;;;;;;;;7.00;5.00;;;;;12.38;45.18;100676.41;5062741;28;45349;-54
2023/03/11 11:23:41;;;;;;;;;2.75;2.75;;;;;12.52;43.83;100678.31;5080687;28;45257;-55
2023/03/11 11:26:24;;;;;;;;;4.00;4.00;;;;;12.71;43.86;100673.69;5080467;28;46476;-55
2023/03/11 11:29:12;;;;;;;;;3.00;3.00;;;;;12.82;42.85;100671.25;5080636;28;45315;-56
2023/03/11 11:31:43;;;;;;;;;4.75;4.00;;;;;12.98;43.73;100668.56;5080530;28;45458;-60
2023/03/11 11:34:28;;;;;;;;;3.75;3.75;;;;;13.14;43.22;100671.28;5080345;28;45283;-74
2023/03/11 11:36:56;;;;;;;;;2.25;2.25;;;;;13.29;42.53;100664.13;5078579;28;47503;-73
2023/03/11 11:39:24;;;;;;;;;7.25;4.25;;;;;13.56;42.55;100666.06;5079240;28;45385;-72
2023/03/11 11:41:51;;;;;;;;;5.00;4.00;;;;;13.78;41.95;100657.56;5077676;28;45485;-66
2023/03/11 11:44:20;;;;;;;;;5.50;4.50;;;;;14.03;40.92;100656.97;5079067;28;45676;-65
2023/03/11 11:47:16;;;;;;;;;5.75;5.00;;;;;14.23;40.61;100651.19;5079712;28;45296;-63
2023/03/11 11:50:13;;;;;;;;;4.50;4.50;;;;;14.36;40.04;100618.94;5051536;28;45430;-63
2023/03/11 11:52:52;;;;;;;;;4.50;4.50;;;;;14.54;40.29;100647.47;5079072;28;45399;-61
2023/03/11 11:55:30;;;;;;;;;3.75;3.75;;;;;14.56;40.51;100650.03;5079413;28;45346;-62
2023/03/11 11:57:56;;;;;;;;;6.00;5.00;;;;;14.66;41.31;100649.34;5079740;28;46983;-62
2023/03/11 12:00:36;;;;;;;;;3.75;3.75;;;;;14.75;39.48;100661.38;5079785;27;45331;-62
2023/03/11 12:03:17;;;;;;;;;4.00;4.00;;;;;14.65;38.48;100644.91;5080148;27;45449;-60
2023/03/11 12:05:53;;;;;;;;;4.00;4.00;;;;;14.46;38.45;100641.66;5079753;27;46145;-61
2023/03/11 12:08:30;;;;;;;;;3.00;3.00;;;;;14.39;38.55;100662.75;5079942;27;45340;-59
2023/03/11 12:11:06;;;;;;;;;4.25;3.50;;;;;14.25;38.87;100648.38;5079381;27;45499;-59
2023/03/11 12:14:00;;;;;;;;;3.00;3.00;;;;;14.05;38.54;100655.00;5079812;27;45330;-59
2023/03/11 12:16:57;;;;;;;;;2.75;2.75;;;;;14.00;39.33;100649.03;5079262;27;46130;-61
2023/03/11 12:19:45;;;;;;;;;1.75;1.75;;;;;13.98;39.95;100645.56;5079252;27;46211;-60
2023/03/11 12:22:47;;;;;;;;;4.50;2.75;;;;;13.92;39.08;100649.53;5072594;28;45398;-59
2023/03/11 12:25:31;;;;;;;;;2.50;2.50;;;;;13.95;39.97;100637.69;5079441;27;45510;-60
2023/03/11 12:27:56;;;;;;;;;2.75;2.75;;;;;14.11;39.87;100643.00;5071608;28;45352;-60
2023/03/11 12:30:32;;;;;;;;;3.00;3.00;;;;;14.23;39.62;100632.28;5079078;28;46222;-64
2023/03/11 12:33:25;;;;;;;;;3.00;2.50;;;;;14.66;40.39;100646.66;5079322;28;45484;-65
2023/03/11 12:35:56;;;;;;;;;4.00;3.00;;;;;15.09;39.04;100636.63;5079291;28;45296;-66
2023/03/11 12:38:34;;;;;;;;;5.75;4.00;;;;;15.49;37.70;100623.13;5078444;28;46068;-67
2023/03/11 12:41:04;;;;;;;;;6.25;3.50;;;;;15.69;37.22;100621.81;5078868;28;46470;-61
2023/03/11 12:43:32;;;;;;;;;4.25;4.25;;;;;15.76;36.58;100632.09;5078263;28;45346;-61
2023/03/11 12:46:03;;;;;;;;;2.75;2.75;;;;;15.78;37.85;100627.44;5069697;28;45450;-60
2023/03/11 12:48:28;;;;;;;;;4.00;4.00;;;;;15.70;38.00;100626.25;5068625;28;45242;-62
2023/03/11 12:50:54;;;;;;;;;4.00;4.00;;;;;15.55;37.67;100624.59;5072125;28;45482;-68
2023/03/11 12:53:39;;;;;;;;;5.50;4.00;;;;;15.36;37.32;100631.22;5081981;27;45317;-73
2023/03/11 12:56:34;;;;;;;;;4.25;4.25;;;;;15.15;37.97;100632.63;5085569;28;45324;-72
2023/03/11 12:59:25;;;;;;;;;4.00;3.50;;;;;14.97;38.25;100628.50;5078884;28;45182;-65
2023/03/11 13:02:16;;;;;;;;;3.00;3.00;;;;;14.91;38.29;100634.25;5061413;28;45509;-65
2023/03/11 13:05:03;;;;;;;;;5.25;4.00;;;;;14.91;38.85;100628.88;5085635;28;45343;-63
2023/03/11 13:07:50;;;;;;;;;2.00;2.00;;;;;14.80;37.67;100626.88;5085517;28;45364;-63
2023/03/11 13:10:15;;;;;;;;;3.00;3.00;;;;;14.65;38.95;100617.06;5085315;28;45730;-63
2023/03/11 13:12:44;;;;;;;;;4.00;4.00;;;;;14.58;39.32;100622.00;5085424;28;45399;-64
2023/03/11 13:15:27;;;;;;;;;4.25;4.25;;;;;14.53;39.04;100615.19;5085449;28;45403;-64
2023/03/11 13:18:06;;;;;;;;;4.25;4.25;;;;;14.41;39.47;100619.53;5084768;28;45317;-63
2023/03/11 13:20:43;;;;;;;;;5.00;5.00;;;;;14.26;40.23;100623.16;5085384;28;45547;-62
2023/03/11 13:23:11;;;;;;;;;2.75;2.75;;;;;14.08;39.20;100619.78;5085218;28;46893;-64
2023/03/11 13:25:41;;;;;;;;;6.00;4.25;;;;;13.90;40.04;100610.13;5085110;28;45304;-62
2023/03/11 13:28:19;;;;;;;;;6.25;5.25;;;;;13.64;40.06;100596.44;5082853;27;46224;-61
2023/03/11 13:31:03;;;;;;;;;3.00;3.00;;;;;13.63;40.30;100601.91;5087827;27;45352;-60
2023/03/11 13:33:54;;;;;;;;;4.25;4.25;;;;;13.57;40.29;100610.38;5084541;28;45516;-61
2023/03/11 13:36:42;;;;;;;;;4.00;3.00;;;;;13.48;40.71;100605.53;5084985;28;45281;-61
2023/03/11 13:39:16;;;;;;;;;5.00;5.00;;;;;13.48;41.08;100610.94;5084175;28;45491;-60
2023/03/11 13:41:43;;;;;;;;;2.00;2.00;;;;;13.31;40.75;100609.25;5085142;27;45487;-60
2023/03/11 13:44:26;;;;;;;;;5.00;5.00;;;;;13.29;41.43;100612.97;5084365;27;45528;-61
2023/03/11 13:46:58;;;;;;;;;4.75;4.75;;;;;13.21;41.77;100606.22;5085275;27;45242;-61
2023/03/11 13:49:29;;;;;;;;;3.75;3.75;;;;;13.16;41.82;100604.75;5084277;28;45379;-59
2023/03/11 13:51:56;;;;;;;;;4.00;4.00;;;;;13.11;41.32;100609.50;5084729;28;45796;-60
2023/03/11 13:54:36;;;;;;;;;4.00;4.00;;;;;13.05;41.43;100615.25;5083759;28;45373;-60
2023/03/11 13:57:02;;;;;;;;;4.00;4.00;;;;;12.99;42.32;100619.19;5084475;28;45295;-61
2023/03/11 13:59:28;;;;;;;;;6.25;5.00;;;;;13.01;42.52;100625.34;5084941;28;45457;-60
2023/03/11 14:01:58;;;;;;;;;5.00;5.00;;;;;12.83;41.94;100627.25;5084232;28;45485;-62
2023/03/11 14:04:36;;;;;;;;;5.25;5.25;;;;;12.76;42.06;100625.00;5082082;28;46377;-62
2023/03/11 14:07:23;;;;;;;;;5.00;5.00;;;;;12.74;43.58;100624.22;5061094;28;45359;-63
2023/03/11 14:09:48;;;;;;;;;5.50;5.00;;;;;12.74;42.90;100619.72;5081445;28;45391;-62
2023/03/11 14:12:14;;;;;;;;;4.00;4.00;;;;;12.83;42.43;100629.97;5080817;28;45462;-60
2023/03/11 14:14:50;;;;;;;;;6.75;4.00;;;;;12.84;43.19;100620.06;5081319;27;45376;-61
2023/03/11 14:17:18;;;;;;;;;4.00;4.00;;;;;12.88;43.17;100608.16;5079746;28;45356;-61
2023/03/11 14:20:15;;;;;;;;;5.75;4.00;;;;;12.93;43.00;100614.13;5081346;27;45414;-60
2023/03/11 14:23:16;;;;;;;;;8.00;5.00;;;;;13.04;43.09;100616.19;5080734;27;45291;-60
2023/03/11 14:25:41;;;;;;;;;3.50;3.50;;;;;13.10;42.45;100615.88;5078335;27;45367;-60
2023/03/11 14:28:06;;;;;;;;;4.25;4.25;;;;;12.96;42.83;100611.25;5075744;28;45342;-59
2023/03/11 14:30:33;;;;;;;;;5.75;5.75;;;;;13.02;42.06;100615.41;5080565;28;45613;-59
2023/03/11 14:33:03;;;;;;;;;4.00;4.00;;;;;13.00;42.87;100626.28;5080111;28;45348;-63
2023/03/11 14:35:30;;;;;;;;;6.25;5.50;;;;;13.03;42.73;100619.84;5080772;28;45452;-61
2023/03/11 14:37:56;;;;;;;;;4.00;4.00;;;;;13.06;42.62;100619.69;5079049;28;45534;-60
2023/03/11 14:40:24;;;;;;;;;4.00;4.00;;;;;13.01;42.93;100619.09;5081052;28;45382;-60
2023/03/11 14:42:52;;;;;;;;;4.00;4.00;;;;;12.93;42.44;100624.88;5080257;28;45391;-60
2023/03/11 14:45:21;;;;;;;;;5.00;5.00;;;;;12.78;42.24;100620.38;5080278;28;46140;-60
2023/03/11 14:47:54;;;;;;;;;4.00;4.00;;;;;12.76;42.75;100633.91;5077775;28;45551;-61
2023/03/11 14:50:23;;;;;;;;;3.00;3.00;;;;;12.73;43.02;100633.25;5080842;28;45433;-61
2023/03/11 14:53:00;;;;;;;;;5.00;5.00;;;;;12.69;43.37;100637.91;5080129;28;45406;-62
2023/03/11 14:55:35;;;;;;;;;4.00;4.00;;;;;12.65;43.31;100635.50;5080340;28;45280;-62
2023/03/11 14:58:12;;;;;;;;;3.50;3.50;;;;;12.63;43.49;100632.03;5080508;28;45485;-59
2023/03/11 15:00:48;;;;;;;;;5.00;5.00;;;;;12.64;43.72;100631.94;5081016;28;45288;-60
2023/03/11 15:03:22;;;;;;;;;3.75;3.75;;;;;12.63;43.75;100622.13;5080696;27;45562;-61
2023/03/11 15:06:02;;;;;;;;;5.50;5.50;;;;;12.68;43.41;100628.09;5080562;27;46400;-59
2023/03/11 15:08:32;;;;;;;;;4.00;4.00;;;;;12.69;43.16;100632.53;5079927;27;45305;-60
2023/03/11 15:11:05;;;;;;;;;5.00;5.00;;;;;12.61;43.33;100621.34;5080367;28;45444;-61
2023/03/11 15:13:30;;;;;;;;;5.25;5.25;;;;;12.62;43.53;100619.53;5092286;27;45254;-59
2023/03/11 15:16:02;;;;;;;;;3.50;3.50;;;;;12.65;43.88;100616.66;5079574;27;46313;-59
2023/03/11 15:18:36;;;;;;;;;5.00;5.00;;;;;12.65;43.33;100622.06;5083376;27;45387;-59
2023/03/11 15:21:05;;;;;;;;;7.00;4.00;;;;;12.60;44.20;100632.19;5080116;27;45608;-61
2023/03/11 15:23:33;;;;;;;;;6.00;6.00;;;;;12.50;43.88;100630.00;5063700;27;45264;-61
2023/03/11 15:25:59;;;;;;;;;6.25;5.75;;;;;12.45;43.98;100623.16;5065594;28;46351;-60
2023/03/11 15:28:29;;;;;;;;;5.00;4.00;;;;;12.45;44.13;100626.72;5058901;28;45384;-60
2023/03/11 15:31:14;;;;;;;;;5.00;4.75;;;;;12.49;44.43;100630.97;5074636;28;45299;-61
2023/03/11 15:33:40;;;;;;;;;5.00;5.00;;;;;12.52;44.68;100627.22;5061402;27;45169;-60
2023/03/11 15:36:42;;;;;;;;;4.75;4.25;;;;;12.55;44.65;100624.38;5069870;28;46098;-59
2023/03/11 15:39:18;;;;;;;;;4.75;4.75;;;;;12.59;44.56;100634.00;5063534;28;45408;-60
2023/03/11 15:42:00;;;;;;;;;5.00;5.00;;;;;12.61;44.61;100631.22;5079529;27;45300;-60
2023/03/11 15:44:32;;;;;;;;;6.50;5.00;;;;;12.63;44.53;100632.88;5079570;27;45470;-59
2023/03/11 15:47:00;;;;;;;;;5.00;5.00;;;;;12.61;44.50;100629.41;5078144;27;45386;-60
2023/03/11 15:49:27;;;;;;;;;4.75;3.00;;;;;12.52;44.25;100611.97;5084900;27;45389;-62
2023/03/11 15:51:59;;;;;;;;;5.50;5.50;;;;;12.50;44.27;100631.84;5084528;27;45971;-60
2023/03/11 15:54:25;;;;;;;;;4.00;4.00;;;;;12.42;44.06;100634.06;5079246;28;45427;-62
2023/03/11 15:56:51;;;;;;;;;5.00;5.00;;;;;12.18;44.04;100614.78;5061067;28;46444;-61
2023/03/11 15:59:17;;;;;;;;;8.75;5.50;;;;;12.04;44.40;100622.72;5079545;28;45363;-61
2023/03/11 16:01:42;;;;;;;;;3.25;3.25;;;;;12.10;45.01;100622.41;5077861;28;45380;-61
2023/03/11 16:04:13;;;;;;;;;9.00;5.75;;;;;12.01;44.72;100628.25;5079713;28;45338;-59
2023/03/11 16:06:39;;;;;;;;;5.50;5.50;;;;;11.96;45.18;100641.09;5079598;28;46342;-59
2023/03/11 16:09:04;;;;;;;;;3.00;3.00;;;;;11.81;45.72;100629.34;5079034;28;45399;-61
2023/03/11 16:11:31;;;;;;;;;3.25;3.25;;;;;11.85;45.93;100641.66;5079408;28;45328;-61
2023/03/11 16:13:57;;;;;;;;;5.00;3.50;;;;;11.89;46.04;100635.19;5079624;28;45450;-61
2023/03/11 16:16:22;;;;;;;;;3.50;3.50;;;;;11.94;46.38;100638.47;5093702;27;45434;-60
2023/03/11 16:18:47;;;;;;;;;4.50;3.75;;;;;11.91;46.17;100651.22;5086686;27;47089;-62
2023/03/11 16:21:16;;;;;;;;;5.75;5.75;;;;;11.85;46.36;100636.28;5077510;28;45521;-61
2023/03/11 16:23:41;;;;;;;;;2.00;2.00;;;;;11.86;46.47;100645.19;5069418;28;45525;-60
2023/03/11 16:26:09;;;;;;;;;4.75;3.75;;;;;11.77;46.40;100643.00;5075332;28;45416;-61
2023/03/11 16:28:34;;;;;;;;;5.00;5.00;;;;;11.74;46.88;100646.66;5089316;27;45320;-60
2023/03/11 16:31:00;;;;;;;;;8.00;6.25;;;;;11.43;47.67;100609.81;5088316;27;45402;-60
2023/03/11 16:33:25;;;;;;;;;5.00;4.25;;;;;11.61;47.76;100640.22;5098882;27;45406;-60
2023/03/11 16:35:51;;;;;;;;;5.75;5.75;;;;;11.66;47.54;100630.97;5078852;28;46249;-60
2023/03/11 16:38:18;;;;;;;;;5.00;5.00;;;;;11.74;47.52;100639.50;5079208;28;45326;-60
2023/03/11 16:40:44;;;;;;;;;4.75;4.75;;;;;11.73;47.85;100632.41;5077065;28;45319;-60
2023/03/11 16:43:14;;;;;;;;;5.00;5.00;;;;;11.75;47.29;100621.59;5078578;28;45262;-56
2023/03/11 16:45:39;;;;;;;;;3.00;3.00;;;;;11.80;47.52;100632.97;5078875;28;46047;-60
2023/03/11 16:48:06;;;;;;;;;4.00;4.00;;;;;11.80;47.73;100638.34;5078690;28;45667;-60